Elkhart Lake, Wisconsin
Current Conditions -  °F | °C
As of 10:53 AM on Saturday 20 Dec 2014 (Local Time) from KSBM Reporting Station
Overcast Overcast  
Wind Chill: -4°   Ceiling: 2200
Heat Index: -1°   Visibility: 10mi
Dew Point: -6°   Wind: 5mph
Humidity: 69%   Direction: 340°NNW
Pressure: 30.25"   Gusts: NA
Location:  43.83°N, 88.02°W
Report Text: KSBM 201653Z AUTO 34004KT 10SM OVC022 M01/M06 A3025 RMK AO2 SLP255 T10111061
Loading
Personal Weather Stations






























Interactive Weather Map New forecast layout! Learn more

10-Day Weather Forecast

Advertisements
Track Severe Weather on mobile